CN-0036 weather

Shantou Waisha Airport
Shantou, Guangdong Province, China

Public forecast

Using degrees Celsius for public forecast. Weather courtesy of forecast.io.

Closest aviation weather report (METAR) to Shantou Waisha Airport

Closest report is Jieyang Chaoshan International Airport, 16.1 nm (29.8 km) WNW. Retrieved 2019/10/20 04:00 UTC (31 minutes ago):

ZGOW 200400Z 10003MPS 050V140 9999 FEW030 27/15 Q1017 NOSIG

Closest aviation forecast (TAF) to Shantou Waisha Airport

Closest forecast is Jieyang Chaoshan International Airport, 16.1 nm (29.8 km) WNW. Retrieved 2019-10-20 00:00 UTC (5 hours ago):

TAF ZGOW 191904Z 2000/2024 10003MPS 6000 FEW020 SCT050 TX30/2006Z TN21/2022Z